Agana Heights, GU

1:18 PM ChST on December 26, 2014 (GMT +1000)
Maite | Change Station
CLOSE
Current Station
Personal Weather Station
Location: Maite, GU
Elevation: 140 ft
Nearby Weather Stations
Active Advisory: High Surf Advisory

Elev 140 ft 13.48 °N, 144.76 °E | Updated 1 second ago

Rain
Rain
81.1 °F
Feels Like 89 °F
N
7.0
Wind Variable Wind from ESE
Gusts 13.0 mph

Today
High -- | Low -- °F
--% Chance of Precip.
Yesterday
High -- | Low -- °F
Precip. -- in
6:41 AM 6:01 PM
Waxing Crescent, 21% visible
Pressure 29.81 in
Visibility 10.0 miles
Clouds Scattered Clouds 1900 ft
Scattered Clouds 2700 ft
Mostly Cloudy 3500 ft
Heat Index 89 °F
Dew Point 79 °F
Humidity 92%
Rainfall 0.15 in
Snow Depth Not available.
UV 6.3 out of 12
Pollen Not available.
Air Quality Not available.
Flu Activity Not available.
SPECI PGUM 260311Z 09011KT 10SM SCT019 SCT027 BKN035 27/26 A2981 RMK AO2 RAB0255E11 P0002

More Conditions Fewer Conditions

Pressure 29.81 in
Visibility 10.0 miles
Clouds Scattered Clouds 1900 ft
Scattered Clouds 2700 ft
Mostly Cloudy 3500 ft
Heat Index 89 °F
Dew Point 79 °F
Humidity 92%
Rainfall 0.15 in
Snow Depth Not available.
UV 6.3 out of 12
Pollen Not available.
Air Quality Not available.
Flu Activity Not available.
SPECI PGUM 260311Z 09011KT 10SM SCT019 SCT027 BKN035 27/26 A2981 RMK AO2 RAB0255E11 P0002

More Conditions Fewer Conditions

10-Day Weather Forecast

Almanac

Astronomy

Dec. 26, 2014 Rise Set
Actual Time
Civil Twilight
Nautical Twilight
Astronomical Twilight
Moon
Length of Visible Light
Length of Day
Tomorrow will be .
, % of the Moon is Illuminated

Today's Extremes

State Highs State Lows

Community

WunderPhotos

Upload Photos

1,780,529 photos uploaded!

WunderBlogs® & News

Nearby

Air Quality

  Air Quality AQ Index Pollutant
Not available.

Snow Depth

Station Depth Elevation

Earthquake Activity

City Distance Mag. Time & Date
Minimum magnitude displayed is 2.5.

Coastal Water Temperatures

Place Temperature

Nearby Weather Stations